createdAt,value
2018-06-12T00:00:05.139Z,99.99
2018-06-12T00:01:05.129Z,99.99
2018-06-12T00:02:05.131Z,99.99
2018-06-12T00:03:05.124Z,99.99
2018-06-12T00:04:05.121Z,99.99
2018-06-12T00:05:05.119Z,99.99
2018-06-12T00:06:05.116Z,99.99
2018-06-12T00:07:05.127Z,99.99
2018-06-12T00:08:05.120Z,99.99
2018-06-12T00:09:05.109Z,99.99
2018-06-12T00:10:05.107Z,99.99
2018-06-12T00:11:05.103Z,99.99
2018-06-12T00:12:05.102Z,99.99
2018-06-12T00:13:05.106Z,99.99
2018-06-12T00:14:05.103Z,99.99
2018-06-12T00:15:05.092Z,99.99
2018-06-12T00:16:05.103Z,99.99
2018-06-12T00:17:05.148Z,99.99
2018-06-12T00:18:05.087Z,99.99
2018-06-12T00:19:05.090Z,99.99
2018-06-12T00:20:05.084Z,99.99
2018-06-12T00:21:05.090Z,99.99
2018-06-12T00:22:05.078Z,99.99
2018-06-12T00:23:05.083Z,99.99
2018-06-12T00:24:05.076Z,99.99
2018-06-12T00:25:05.074Z,99.99
2018-06-12T00:26:05.070Z,99.99
2018-06-12T00:27:05.118Z,99.99
2018-06-12T00:28:05.073Z,99.99
2018-06-12T00:29:05.061Z,99.99
2018-06-12T00:30:05.064Z,99.99
2018-06-12T00:31:05.057Z,99.99
2018-06-12T00:32:05.057Z,99.99
2018-06-12T00:33:05.067Z,99.99
2018-06-12T00:34:05.051Z,99.99
2018-06-12T00:35:05.053Z,99.99
2018-06-12T00:36:05.047Z,99.99
2018-06-12T00:37:05.054Z,99.99
2018-06-12T00:38:05.047Z,99.99
2018-06-12T00:39:05.041Z,99.99
2018-06-12T00:40:05.107Z,99.99
2018-06-12T00:41:05.034Z,99.99
2018-06-12T00:42:05.034Z,99.99
2018-06-12T00:43:05.037Z,99.99
2018-06-12T00:44:05.026Z,99.99
2018-06-12T00:45:05.036Z,99.99
2018-06-12T00:46:05.032Z,99.99
2018-06-12T00:47:05.029Z,99.99
2018-06-12T00:48:05.022Z,99.99
2018-06-12T00:49:05.017Z,99.99
2018-06-12T00:50:05.058Z,99.99
2018-06-12T00:51:05.021Z,99.99
2018-06-12T00:52:05.023Z,99.99
2018-06-12T00:53:05.011Z,99.99
2018-06-12T00:54:05.007Z,99.99
2018-06-12T00:55:05.011Z,99.99
2018-06-12T00:56:05.001Z,99.99
2018-06-12T00:57:05.000Z,99.99
2018-06-12T00:58:04.998Z,99.99
2018-06-12T00:59:04.993Z,99.99
2018-06-12T01:00:05.040Z,99.99
2018-06-12T01:01:04.998Z,99.99
2018-06-12T01:02:04.991Z,99.99
2018-06-12T01:03:04.987Z,99.99
2018-06-12T01:04:04.992Z,99.99
2018-06-12T01:05:04.981Z,99.99
2018-06-12T01:06:04.993Z,99.99
2018-06-12T01:07:05.011Z,99.99
2018-06-12T01:08:04.981Z,99.99
2018-06-12T01:09:04.975Z,99.99
2018-06-12T01:10:04.975Z,99.99
2018-06-12T01:11:04.981Z,99.99
2018-06-12T01:12:04.974Z,99.99
2018-06-12T01:13:04.964Z,99.99
2018-06-12T01:14:04.967Z,99.99
2018-06-12T01:15:04.968Z,99.99
2018-06-12T01:16:04.961Z,99.99
2018-06-12T01:17:04.961Z,99.99
2018-06-12T01:18:04.962Z,99.99
2018-06-12T01:19:04.955Z,99.99
2018-06-12T01:20:04.955Z,99.99
2018-06-12T01:21:04.946Z,99.99
2018-06-12T01:22:04.950Z,99.99
2018-06-12T01:23:05.031Z,99.99
2018-06-12T01:24:04.948Z,99.99
2018-06-12T01:25:04.943Z,99.99
2018-06-12T01:26:04.946Z,99.99
2018-06-12T01:27:04.941Z,99.99
2018-06-12T01:28:04.938Z,99.99
2018-06-12T01:29:04.932Z,99.99
2018-06-12T01:30:04.934Z,99.99
2018-06-12T01:31:04.927Z,99.99
2018-06-12T01:32:04.929Z,99.99
2018-06-12T01:33:04.928Z,99.99
2018-06-12T01:34:04.924Z,99.99
2018-06-12T01:35:04.918Z,99.99
2018-06-12T01:36:04.917Z,99.99
2018-06-12T01:37:04.916Z,99.99
2018-06-12T01:38:04.915Z,99.99
2018-06-12T01:39:04.910Z,99.99
2018-06-12T01:40:04.920Z,99.99
2018-06-12T01:41:04.922Z,99.99
2018-06-12T01:42:04.915Z,99.99
2018-06-12T01:43:04.966Z,99.99
2018-06-12T01:44:04.911Z,99.99
2018-06-12T01:45:04.898Z,99.99
2018-06-12T01:46:04.934Z,99.99
2018-06-12T01:47:04.895Z,99.99
2018-06-12T01:48:04.896Z,99.99
2018-06-12T01:49:04.890Z,99.99
2018-06-12T01:50:04.888Z,99.99
2018-06-12T01:51:04.895Z,99.99
2018-06-12T01:52:04.884Z,99.99
2018-06-12T01:53:04.888Z,99.99
2018-06-12T01:54:04.888Z,99.99
2018-06-12T01:55:04.877Z,99.99
2018-06-12T01:56:04.924Z,99.99
2018-06-12T01:57:04.874Z,99.99
2018-06-12T01:58:04.872Z,99.99
2018-06-12T01:59:04.868Z,99.99
2018-06-12T02:00:04.880Z,99.99
2018-06-12T02:01:04.865Z,99.99
2018-06-12T02:02:04.871Z,99.99
2018-06-12T02:03:04.863Z,99.99
2018-06-12T02:04:04.859Z,99.99
2018-06-12T02:05:04.863Z,99.99
2018-06-12T02:06:04.855Z,99.99
2018-06-12T02:07:04.852Z,99.99
2018-06-12T02:08:04.857Z,99.99
2018-06-12T02:09:04.851Z,99.99
2018-06-12T02:10:04.850Z,99.99
2018-06-12T02:11:04.850Z,99.99
2018-06-12T02:12:04.851Z,99.99
2018-06-12T02:13:04.845Z,99.99
2018-06-12T02:14:04.840Z,99.99
2018-06-12T02:15:04.845Z,99.99
2018-06-12T02:16:04.831Z,99.99
2018-06-12T02:17:04.835Z,99.99
2018-06-12T02:18:04.828Z,99.99
2018-06-12T02:19:04.828Z,99.99
2018-06-12T02:20:04.824Z,99.99
2018-06-12T02:21:04.826Z,99.99
2018-06-12T02:22:04.824Z,99.99
2018-06-12T02:23:04.815Z,99.99
2018-06-12T02:24:04.822Z,99.99
2018-06-12T02:25:04.815Z,99.99
2018-06-12T02:26:04.855Z,99.99
2018-06-12T02:27:04.807Z,99.99
2018-06-12T02:28:04.804Z,99.99
2018-06-12T02:29:04.847Z,99.99
2018-06-12T02:30:04.803Z,99.99
2018-06-12T02:31:04.798Z,99.99
2018-06-12T02:32:04.796Z,99.99
2018-06-12T02:33:04.795Z,99.99
2018-06-12T02:34:04.800Z,99.99
2018-06-12T02:35:04.790Z,99.99
2018-06-12T02:36:04.815Z,99.99
2018-06-12T02:37:04.798Z,99.99
2018-06-12T02:38:04.783Z,99.99
2018-06-12T02:39:04.813Z,99.99
2018-06-12T02:40:04.783Z,99.99
2018-06-12T02:41:04.775Z,99.99
2018-06-12T02:42:04.783Z,99.99
2018-06-12T02:43:04.781Z,99.99
2018-06-12T02:44:04.769Z,99.99
2018-06-12T02:45:04.775Z,99.99
2018-06-12T02:46:04.765Z,99.99
2018-06-12T02:47:04.765Z,99.99
2018-06-12T02:48:04.773Z,99.99
2018-06-12T02:49:04.761Z,99.99
2018-06-12T02:50:04.765Z,99.99
2018-06-12T02:51:04.753Z,99.99
2018-06-12T02:52:04.758Z,99.99
2018-06-12T02:53:04.757Z,99.99
2018-06-12T02:54:04.759Z,99.99
2018-06-12T02:55:04.755Z,99.99
2018-06-12T02:56:04.750Z,99.99
2018-06-12T02:57:04.751Z,99.99
2018-06-12T02:58:04.739Z,99.99
2018-06-12T02:59:04.771Z,99.99
2018-06-12T03:00:04.747Z,99.99
2018-06-12T03:01:04.740Z,99.99
2018-06-12T03:02:04.768Z,99.99
2018-06-12T03:03:04.740Z,99.99
2018-06-12T03:04:04.725Z,99.99
2018-06-12T03:05:04.723Z,99.99
2018-06-12T03:06:04.721Z,99.99
2018-06-12T03:07:04.721Z,99.99
2018-06-12T03:08:04.714Z,99.99
2018-06-12T03:09:04.727Z,99.99
2018-06-12T03:10:04.711Z,99.99
2018-06-12T03:11:04.717Z,99.99
2018-06-12T03:12:04.744Z,99.99
2018-06-12T03:13:04.710Z,99.99
2018-06-12T03:14:04.702Z,99.99
2018-06-12T03:15:04.709Z,99.99
2018-06-12T03:16:04.710Z,99.99
2018-06-12T03:17:04.701Z,99.99
2018-06-12T03:18:04.694Z,99.99
2018-06-12T03:19:04.688Z,99.99
2018-06-12T03:20:04.685Z,99.99
2018-06-12T03:21:04.682Z,99.99
2018-06-12T03:22:04.706Z,99.99
2018-06-12T03:23:04.677Z,99.99
2018-06-12T03:24:04.677Z,99.99
2018-06-12T03:25:04.674Z,99.99
2018-06-12T03:26:04.672Z,99.99
2018-06-12T03:27:04.671Z,99.99
2018-06-12T03:28:04.674Z,99.99
2018-06-12T03:29:04.669Z,99.99
2018-06-12T03:30:04.662Z,99.99
2018-06-12T03:31:04.658Z,99.99
2018-06-12T03:32:04.666Z,99.99
2018-06-12T03:33:04.663Z,99.99
2018-06-12T03:34:04.651Z,99.99
2018-06-12T03:35:04.649Z,99.99
2018-06-12T03:36:04.645Z,99.99
2018-06-12T03:37:04.649Z,99.99
2018-06-12T03:38:04.644Z,99.99
2018-06-12T03:39:04.638Z,99.99
2018-06-12T03:40:04.638Z,99.99
2018-06-12T03:41:04.645Z,99.99
2018-06-12T03:42:04.637Z,99.99
2018-06-12T03:43:04.640Z,99.99
2018-06-12T03:44:04.634Z,99.99
2018-06-12T03:45:04.631Z,99.99
2018-06-12T03:46:04.628Z,99.99
2018-06-12T03:47:04.622Z,99.99
2018-06-12T03:48:04.623Z,99.99
2018-06-12T03:49:04.626Z,99.99
2018-06-12T03:50:04.623Z,99.99
2018-06-12T03:51:04.630Z,99.99
2018-06-12T03:52:04.618Z,99.99
2018-06-12T03:53:04.607Z,99.99
2018-06-12T03:54:04.614Z,99.99
2018-06-12T03:55:04.633Z,99.99
2018-06-12T03:56:04.600Z,99.99
2018-06-12T03:57:04.612Z,99.99
2018-06-12T03:58:04.598Z,99.99
2018-06-12T03:59:04.596Z,99.99
2018-06-12T04:00:04.592Z,99.99
2018-06-12T04:01:04.593Z,99.99
2018-06-12T04:02:04.586Z,99.99
2018-06-12T04:03:04.598Z,99.99
2018-06-12T04:04:04.580Z,99.99
2018-06-12T04:05:04.598Z,99.99
2018-06-12T04:06:04.579Z,99.99
2018-06-12T04:07:04.576Z,99.99
2018-06-12T04:08:04.576Z,99.99
2018-06-12T04:09:04.579Z,99.99
2018-06-12T04:10:04.575Z,99.99
2018-06-12T04:11:04.573Z,99.99
2018-06-12T04:12:04.564Z,99.99
2018-06-12T04:13:04.559Z,99.99
2018-06-12T04:14:04.556Z,99.99
2018-06-12T04:15:04.598Z,99.99
2018-06-12T04:16:04.552Z,99.99
2018-06-12T04:17:04.562Z,99.99
2018-06-12T04:18:04.584Z,99.99
2018-06-12T04:19:04.546Z,99.99
2018-06-12T04:20:04.540Z,99.99
2018-06-12T04:21:04.552Z,99.99
2018-06-12T04:22:04.543Z,99.99
2018-06-12T04:23:04.540Z,99.99
2018-06-12T04:24:04.532Z,99.99
2018-06-12T04:25:04.530Z,99.99
2018-06-12T04:26:04.527Z,99.99
2018-06-12T04:27:04.522Z,99.99
2018-06-12T04:28:04.550Z,99.99
2018-06-12T04:29:04.529Z,99.99
2018-06-12T04:30:04.526Z,99.99
2018-06-12T04:31:04.520Z,99.99
2018-06-12T04:32:04.511Z,99.99
2018-06-12T04:33:04.509Z,99.99
2018-06-12T04:34:04.515Z,99.99
2018-06-12T04:35:04.512Z,99.99
2018-06-12T04:36:04.501Z,99.99
2018-06-12T04:37:04.509Z,99.99
2018-06-12T04:38:04.519Z,99.99
2018-06-12T04:39:04.493Z,99.99
2018-06-12T04:40:04.500Z,99.99
2018-06-12T04:41:04.489Z,99.99
2018-06-12T04:42:04.495Z,99.99
2018-06-12T04:43:04.491Z,99.99
2018-06-12T04:44:04.485Z,99.99
2018-06-12T04:45:04.481Z,99.99
2018-06-12T04:46:04.478Z,99.99
2018-06-12T04:47:04.475Z,99.99
2018-06-12T04:48:04.486Z,99.99
2018-06-12T04:49:04.473Z,99.99
2018-06-12T04:50:04.475Z,99.99
2018-06-12T04:51:04.464Z,99.99
2018-06-12T04:52:04.473Z,99.99
2018-06-12T04:53:04.467Z,99.99
2018-06-12T04:54:04.456Z,99.99
2018-06-12T04:55:04.463Z,99.99
2018-06-12T04:56:04.462Z,99.99
2018-06-12T04:57:04.456Z,99.99
2018-06-12T04:58:04.458Z,99.99
2018-06-12T04:59:04.451Z,99.99
2018-06-12T05:00:04.443Z,99.99
2018-06-12T05:01:04.449Z,99.99
2018-06-12T05:02:04.436Z,99.99
2018-06-12T05:03:04.439Z,99.99
2018-06-12T05:04:04.431Z,99.99
2018-06-12T05:05:04.432Z,99.99
2018-06-12T05:06:04.432Z,99.99
2018-06-12T05:07:04.424Z,99.99
2018-06-12T05:08:04.427Z,99.99
2018-06-12T05:09:04.422Z,99.99
2018-06-12T05:10:04.426Z,99.99
2018-06-12T05:11:04.424Z,99.99
2018-06-12T05:12:04.414Z,99.99
2018-06-12T05:13:04.415Z,99.99
2018-06-12T05:14:04.416Z,99.99
2018-06-12T05:15:04.415Z,99.99
2018-06-12T05:16:04.406Z,99.99
2018-06-12T05:17:04.408Z,99.99
2018-06-12T05:18:04.397Z,99.99
2018-06-12T05:19:04.397Z,99.99
2018-06-12T05:20:04.394Z,99.99
2018-06-12T05:21:04.397Z,99.99
2018-06-12T05:22:04.393Z,99.99
2018-06-12T05:23:04.391Z,99.99
2018-06-12T05:24:04.384Z,99.99
2018-06-12T05:25:04.381Z,99.99
2018-06-12T05:26:04.380Z,99.99
2018-06-12T05:27:04.386Z,99.99
2018-06-12T05:28:04.373Z,99.99
2018-06-12T05:29:04.375Z,99.99
2018-06-12T05:30:04.370Z,99.99
2018-06-12T05:31:04.406Z,99.99
2018-06-12T05:32:04.368Z,99.99
2018-06-12T05:33:04.362Z,99.99
2018-06-12T05:34:04.373Z,99.99
2018-06-12T05:35:04.361Z,99.99
2018-06-12T05:36:04.440Z,99.99
2018-06-12T05:37:04.353Z,99.99
2018-06-12T05:38:04.434Z,99.99
2018-06-12T05:39:04.350Z,99.99
2018-06-12T05:40:04.348Z,99.99
2018-06-12T05:41:04.351Z,99.99
2018-06-12T05:42:04.351Z,99.99
2018-06-12T05:43:04.349Z,99.99
2018-06-12T05:44:04.347Z,99.99
2018-06-12T05:45:04.336Z,99.99
2018-06-12T05:46:04.334Z,99.99
2018-06-12T05:47:04.347Z,99.99
2018-06-12T05:48:04.339Z,99.99
2018-06-12T05:49:04.331Z,99.99
2018-06-12T05:50:04.329Z,99.99
2018-06-12T05:51:04.324Z,99.99
2018-06-12T05:52:04.322Z,99.99
2018-06-12T05:53:04.319Z,99.99
2018-06-12T05:54:04.321Z,99.99
2018-06-12T05:55:04.318Z,99.99
2018-06-12T05:56:04.319Z,99.99
2018-06-12T05:57:04.310Z,99.99
2018-06-12T05:58:04.313Z,99.99
2018-06-12T05:59:04.306Z,99.99
2018-06-12T06:00:04.308Z,99.99
2018-06-12T06:01:04.300Z,99.99
2018-06-12T06:02:04.309Z,99.99
2018-06-12T06:03:04.298Z,99.99
2018-06-12T06:04:04.309Z,99.99
2018-06-12T06:05:04.294Z,99.99
2018-06-12T06:06:04.293Z,99.99
2018-06-12T06:07:04.295Z,99.99
2018-06-12T06:08:04.296Z,99.99
2018-06-12T06:09:04.287Z,99.99
2018-06-12T06:10:04.300Z,99.99
2018-06-12T06:11:04.282Z,99.99
2018-06-12T06:12:04.295Z,99.99
2018-06-12T06:13:04.281Z,99.99
2018-06-12T06:14:04.292Z,99.99
2018-06-12T06:15:04.275Z,99.99
2018-06-12T06:16:04.278Z,99.99
2018-06-12T06:17:04.287Z,99.99
2018-06-12T06:18:04.279Z,99.99
2018-06-12T06:19:04.273Z,99.99
2018-06-12T06:20:04.275Z,99.99
2018-06-12T06:21:04.265Z,99.99
2018-06-12T06:22:04.264Z,99.99
2018-06-12T06:23:04.274Z,99.99
2018-06-12T06:24:04.259Z,99.99
2018-06-12T06:25:04.265Z,99.99
2018-06-12T06:26:04.258Z,99.99
2018-06-12T06:27:04.252Z,99.99
2018-06-12T06:28:04.251Z,99.99
2018-06-12T06:29:04.257Z,99.99
2018-06-12T06:30:04.257Z,99.99
2018-06-12T06:31:04.250Z,99.99
2018-06-12T06:32:04.242Z,99.99
2018-06-12T06:33:04.242Z,99.99
2018-06-12T06:34:04.241Z,99.99
2018-06-12T06:35:04.246Z,99.99
2018-06-12T06:36:04.246Z,99.73
2018-06-12T06:37:04.239Z,99.01
2018-06-12T06:38:04.234Z,98.72
2018-06-12T06:39:04.232Z,98.54
2018-06-12T06:40:04.234Z,98.92
2018-06-12T06:41:04.234Z,99.99
2018-06-12T06:42:04.229Z,99.59
2018-06-12T06:43:04.228Z,98.82
2018-06-12T06:44:04.233Z,98.05
2018-06-12T06:45:04.226Z,97.86
2018-06-12T06:46:04.221Z,98.92
2018-06-12T06:47:04.226Z,99.69
2018-06-12T06:48:04.227Z,98.44
2018-06-12T06:49:04.214Z,97.86
2018-06-12T06:50:04.216Z,98.14
2018-06-12T06:51:04.249Z,97.76
2018-06-12T06:52:04.209Z,97.09
2018-06-12T06:53:04.209Z,97.81
2018-06-12T06:54:04.207Z,97.57
2018-06-12T06:55:04.206Z,97.86
2018-06-12T06:56:04.204Z,97.67
2018-06-12T06:57:04.203Z,97.57
2018-06-12T06:58:04.200Z,97.67
2018-06-12T06:59:04.204Z,97.57
2018-06-12T07:00:04.206Z,98.34
2018-06-12T07:01:04.203Z,98.05
2018-06-12T07:02:04.197Z,97.76
2018-06-12T07:03:04.199Z,98.24
2018-06-12T07:04:04.193Z,98.54
2018-06-12T07:05:04.198Z,98.54
2018-06-12T07:06:04.196Z,98.72
2018-06-12T07:07:04.188Z,98.14
2018-06-12T07:08:04.194Z,97.76
2018-06-12T07:09:04.193Z,97.86
2018-06-12T07:10:04.182Z,97.96
2018-06-12T07:11:04.180Z,97.67
2018-06-12T07:12:04.181Z,98.05
2018-06-12T07:13:04.194Z,97.86
2018-06-12T07:14:04.176Z,97.38
2018-06-12T07:15:04.178Z,98.05
2018-06-12T07:16:04.174Z,98.24
2018-06-12T07:17:04.177Z,98.54
2018-06-12T07:18:04.170Z,98.24
2018-06-12T07:19:04.170Z,98.54
2018-06-12T07:20:04.177Z,98.82
2018-06-12T07:21:04.168Z,98.72
2018-06-12T07:22:04.169Z,98.63
2018-06-12T07:23:04.164Z,97.86
2018-06-12T07:24:04.162Z,97.47
2018-06-12T07:25:04.165Z,97.28
2018-06-12T07:26:04.161Z,97.76
2018-06-12T07:27:04.156Z,98.82
2018-06-12T07:28:04.159Z,98.05
2018-06-12T07:29:04.156Z,98.14
2018-06-12T07:30:04.180Z,98.05
2018-06-12T07:31:04.153Z,97.67
2018-06-12T07:32:04.156Z,97.62
2018-06-12T07:33:04.149Z,97.24
2018-06-12T07:34:04.151Z,97.52
2018-06-12T07:35:04.147Z,97.91
2018-06-12T07:36:04.151Z,97.52
2018-06-12T07:37:04.145Z,97.91
2018-06-12T07:38:04.145Z,96.56
2018-06-12T07:39:04.140Z,96.27
2018-06-12T07:40:04.144Z,97.14
2018-06-12T07:41:04.146Z,97.04
2018-06-12T07:42:04.138Z,97.04
2018-06-12T07:43:04.135Z,97.81
2018-06-12T07:44:04.143Z,96.51
2018-06-12T07:45:04.141Z,95.84
2018-06-12T07:46:04.136Z,94.39
2018-06-12T07:47:04.140Z,94.20
2018-06-12T07:48:04.128Z,94.78
2018-06-12T07:49:04.136Z,95.16
2018-06-12T07:50:04.133Z,95.16
2018-06-12T07:51:04.141Z,94.87
2018-06-12T07:52:04.125Z,94.97
2018-06-12T07:53:04.127Z,95.07
2018-06-12T07:54:04.127Z,94.87
2018-06-12T07:55:04.174Z,93.62
2018-06-12T07:56:04.121Z,94.29
2018-06-12T07:57:04.122Z,93.86
2018-06-12T07:58:04.123Z,93.28
2018-06-12T07:59:04.123Z,93.62
2018-06-12T08:00:04.118Z,93.24
2018-06-12T08:01:04.138Z,93.38
2018-06-12T08:02:04.122Z,93.28
2018-06-12T08:03:04.119Z,93.19
2018-06-12T08:04:04.114Z,92.41
2018-06-12T08:05:04.114Z,92.22
2018-06-12T08:06:04.126Z,92.41
2018-06-12T08:07:04.158Z,92.32
2018-06-12T08:08:04.111Z,92.03
2018-06-12T08:09:04.111Z,91.55
2018-06-12T08:10:04.112Z,92.41
2018-06-12T08:11:04.111Z,91.83
2018-06-12T08:12:04.111Z,91.93
2018-06-12T08:13:04.188Z,91.64
2018-06-12T08:14:04.110Z,91.55
2018-06-12T08:15:04.105Z,91.06
2018-06-12T08:16:04.103Z,91.06
2018-06-12T08:17:04.111Z,90.72
2018-06-12T08:18:04.108Z,90.05
2018-06-12T08:19:04.110Z,90.15
2018-06-12T08:20:04.101Z,90.24
2018-06-12T08:21:04.101Z,90.05
2018-06-12T08:22:04.111Z,90.05
2018-06-12T08:23:04.100Z,89.86
2018-06-12T08:24:04.098Z,90.24
2018-06-12T08:25:04.098Z,91.02
2018-06-12T08:26:04.105Z,91.50
2018-06-12T08:27:04.100Z,91.60
2018-06-12T08:28:04.096Z,92.27
2018-06-12T08:29:04.100Z,90.44
2018-06-12T08:30:04.230Z,90.05
2018-06-12T08:31:04.100Z,90.82
2018-06-12T08:32:04.098Z,90.82
2018-06-12T08:33:04.094Z,90.78
2018-06-12T08:34:04.108Z,91.30
2018-06-12T08:35:04.093Z,91.45
2018-06-12T08:36:04.091Z,90.30
2018-06-12T08:37:04.092Z,90.48
2018-06-12T08:38:04.100Z,90.24
2018-06-12T08:39:04.100Z,91.45
2018-06-12T08:40:04.093Z,91.69
2018-06-12T08:41:04.098Z,92.65
2018-06-12T08:42:04.091Z,91.40
2018-06-12T08:43:04.093Z,91.69
2018-06-12T08:44:04.101Z,92.46
2018-06-12T08:45:04.094Z,92.36
2018-06-12T08:46:04.091Z,92.17
2018-06-12T08:47:04.085Z,92.27
2018-06-12T08:48:04.094Z,90.44
2018-06-12T08:49:04.085Z,90.82
2018-06-12T08:50:04.087Z,90.58
2018-06-12T08:51:04.084Z,90.30
2018-06-12T08:52:04.097Z,90.48
2018-06-12T08:53:04.083Z,90.10
2018-06-12T08:54:04.085Z,91.02
2018-06-12T08:55:04.090Z,90.05
2018-06-12T08:56:04.085Z,89.76
2018-06-12T08:57:04.090Z,89.18
2018-06-12T08:58:04.084Z,88.99
2018-06-12T08:59:04.090Z,89.23
2018-06-12T09:00:04.078Z,87.45
2018-06-12T09:01:04.077Z,85.37
2018-06-12T09:02:04.077Z,85.75
2018-06-12T09:03:04.075Z,84.50
2018-06-12T09:04:04.080Z,83.34
2018-06-12T09:05:04.083Z,82.90
2018-06-12T09:06:04.076Z,83.29
2018-06-12T09:07:04.074Z,82.71
2018-06-12T09:08:04.076Z,81.74
2018-06-12T09:09:04.073Z,82.32
2018-06-12T09:10:04.074Z,80.62
2018-06-12T09:11:04.084Z,80.24
2018-06-12T09:12:04.073Z,80.72
2018-06-12T09:13:04.071Z,79.95
2018-06-12T09:14:04.073Z,80.53
2018-06-12T09:15:04.075Z,79.85
2018-06-12T09:16:04.079Z,79.85
2018-06-12T09:17:04.075Z,79.85
2018-06-12T09:18:04.075Z,79.60
2018-06-12T09:19:04.081Z,79.02
2018-06-12T09:20:04.071Z,79.17
2018-06-12T09:21:04.071Z,79.60
2018-06-12T09:22:04.075Z,79.50
2018-06-12T09:23:04.069Z,78.54
2018-06-12T09:24:04.082Z,79.41
2018-06-12T09:25:04.104Z,78.83
2018-06-12T09:26:04.093Z,77.38
2018-06-12T09:27:04.080Z,77.38
2018-06-12T09:28:04.075Z,77.28
2018-06-12T09:29:04.081Z,76.90
2018-06-12T09:30:04.077Z,76.80
2018-06-12T09:31:04.070Z,76.16
2018-06-12T09:32:04.072Z,74.87
2018-06-12T09:33:04.073Z,76.12
2018-06-12T09:34:04.080Z,77.00
2018-06-12T09:35:04.083Z,75.45
2018-06-12T09:36:04.080Z,75.84
2018-06-12T09:37:04.082Z,76.80
2018-06-12T09:38:04.077Z,77.28
2018-06-12T09:39:04.084Z,77.28
2018-06-12T09:40:04.088Z,76.90
2018-06-12T09:41:04.082Z,75.35
2018-06-12T09:42:04.144Z,75.74
2018-06-12T09:43:04.077Z,75.64
2018-06-12T09:44:04.078Z,75.29
2018-06-12T09:45:04.078Z,75.64
2018-06-12T09:46:04.080Z,75.64
2018-06-12T09:47:04.088Z,75.74
2018-06-12T09:48:04.089Z,74.87
2018-06-12T09:49:04.085Z,77.00
2018-06-12T09:50:04.086Z,77.00
2018-06-12T09:51:04.080Z,77.09
2018-06-12T09:52:04.086Z,77.00
2018-06-12T09:53:04.080Z,77.28
2018-06-12T09:54:04.083Z,77.19
2018-06-12T09:55:04.099Z,77.38
2018-06-12T09:56:04.085Z,76.80
2018-06-12T09:57:04.098Z,76.90
2018-06-12T09:58:04.094Z,76.22
2018-06-12T09:59:04.093Z,77.19
2018-06-12T10:00:04.093Z,77.48
2018-06-12T10:01:04.101Z,76.42
2018-06-12T10:02:04.091Z,76.12
2018-06-12T10:03:04.086Z,76.61
2018-06-12T10:04:04.088Z,76.12
2018-06-12T10:05:04.099Z,75.74
2018-06-12T10:06:04.091Z,75.84
2018-06-12T10:07:04.096Z,76.80
2018-06-12T10:08:04.094Z,76.70
2018-06-12T10:09:04.096Z,76.03
2018-06-12T10:10:04.096Z,76.32
2018-06-12T10:11:04.094Z,76.22
2018-06-12T10:12:04.102Z,76.80
2018-06-12T10:13:04.092Z,76.51
2018-06-12T10:14:04.097Z,76.61
2018-06-12T10:15:04.097Z,76.61
2018-06-12T10:16:04.100Z,76.12
2018-06-12T10:17:04.094Z,75.93
2018-06-12T10:18:04.103Z,77.34
2018-06-12T10:19:04.095Z,76.76
2018-06-12T10:20:04.101Z,77.05
2018-06-12T10:21:04.096Z,77.05
2018-06-12T10:22:04.096Z,76.67
2018-06-12T10:23:04.099Z,76.09
2018-06-12T10:24:04.101Z,75.89
2018-06-12T10:25:04.145Z,76.67
2018-06-12T10:26:04.097Z,77.44
2018-06-12T10:27:04.101Z,77.15
2018-06-12T10:28:04.100Z,77.15
2018-06-12T10:29:04.106Z,77.15
2018-06-12T10:30:04.100Z,77.53
2018-06-12T10:31:04.108Z,77.53
2018-06-12T10:32:04.104Z,78.11
2018-06-12T10:33:04.101Z,77.44
2018-06-12T10:34:04.106Z,76.86
2018-06-12T10:35:04.103Z,77.25
2018-06-12T10:36:04.113Z,77.53
2018-06-12T10:37:04.136Z,77.15
2018-06-12T10:38:04.099Z,78.69
2018-06-12T10:39:04.106Z,79.27
2018-06-12T10:40:04.104Z,79.85
2018-06-12T10:41:04.101Z,79.66
2018-06-12T10:42:04.103Z,79.17
2018-06-12T10:43:04.103Z,79.75
2018-06-12T10:44:04.104Z,80.05
2018-06-12T10:45:04.106Z,81.68
2018-06-12T10:46:04.112Z,81.73
2018-06-12T10:47:04.103Z,81.63
2018-06-12T10:48:04.103Z,79.80
2018-06-12T10:49:04.107Z,79.12
2018-06-12T10:50:04.206Z,79.22
2018-06-12T10:51:04.109Z,80.08
2018-06-12T10:52:04.105Z,79.31
2018-06-12T10:53:04.108Z,80.47
2018-06-12T10:54:04.105Z,80.38
2018-06-12T10:55:04.117Z,81.15
2018-06-12T10:56:04.104Z,81.15
2018-06-12T10:57:04.106Z,80.28
2018-06-12T10:58:04.107Z,80.51
2018-06-12T10:59:04.114Z,80.66
2018-06-12T11:00:04.107Z,80.41
2018-06-12T11:01:04.108Z,79.22
2018-06-12T11:02:04.113Z,77.80
2018-06-12T11:03:04.116Z,78.54
2018-06-12T11:04:04.114Z,78.06
2018-06-12T11:05:04.111Z,77.57
2018-06-12T11:06:04.110Z,77.67
2018-06-12T11:07:04.109Z,77.09
2018-06-12T11:08:04.128Z,78.44
2018-06-12T11:09:04.121Z,78.83
2018-06-12T11:10:04.112Z,79.50
2018-06-12T11:11:04.121Z,78.15
2018-06-12T11:12:04.121Z,77.00
2018-06-12T11:13:04.122Z,76.80
2018-06-12T11:14:04.116Z,76.61
2018-06-12T11:15:04.113Z,78.06
2018-06-12T11:16:04.117Z,79.02
2018-06-12T11:17:04.118Z,78.44
2018-06-12T11:18:04.118Z,80.08
2018-06-12T11:19:04.125Z,79.12
2018-06-12T11:20:04.130Z,79.12
2018-06-12T11:21:04.124Z,78.92
2018-06-12T11:22:04.117Z,77.86
2018-06-12T11:23:04.132Z,77.57
2018-06-12T11:24:04.121Z,78.34
2018-06-12T11:25:04.119Z,77.38
2018-06-12T11:26:04.133Z,78.83
2018-06-12T11:27:04.121Z,78.06
2018-06-12T11:28:04.122Z,79.37
2018-06-12T11:29:04.128Z,78.92
2018-06-12T11:30:04.127Z,79.31
2018-06-12T11:31:04.124Z,78.99
2018-06-12T11:32:04.127Z,79.17
2018-06-12T11:33:04.207Z,78.79
2018-06-12T11:34:04.126Z,79.12
2018-06-12T11:35:04.124Z,79.12
2018-06-12T11:36:04.137Z,77.76
2018-06-12T11:37:04.128Z,77.76
2018-06-12T11:38:04.131Z,78.06
2018-06-12T11:39:04.131Z,76.93
2018-06-12T11:40:04.128Z,75.58
2018-06-12T11:41:04.125Z,74.46
2018-06-12T11:42:04.132Z,74.55
2018-06-12T11:43:04.130Z,74.13
2018-06-12T11:44:04.131Z,75.39
2018-06-12T11:45:04.130Z,75.58
2018-06-12T11:46:04.130Z,75.29
2018-06-12T11:47:04.136Z,75.58
2018-06-12T11:48:04.133Z,75.20
2018-06-12T11:49:04.139Z,75.35
2018-06-12T11:50:04.136Z,76.22
2018-06-12T11:51:04.201Z,74.77
2018-06-12T11:52:04.133Z,75.45
2018-06-12T11:53:04.145Z,75.02
2018-06-12T11:54:04.137Z,74.35
2018-06-12T11:55:04.142Z,74.77
2018-06-12T11:56:04.145Z,75.60
2018-06-12T11:57:04.135Z,75.16
2018-06-12T11:58:04.138Z,76.03
2018-06-12T11:59:04.144Z,75.26
2018-06-12T12:00:04.145Z,74.77
2018-06-12T12:01:04.162Z,74.38
2018-06-12T12:02:04.143Z,74.87
2018-06-12T12:03:04.138Z,75.70
2018-06-12T12:04:04.143Z,75.06
2018-06-12T12:05:04.143Z,74.35
2018-06-12T12:06:04.146Z,74.73
2018-06-12T12:07:04.138Z,75.70
2018-06-12T12:08:04.148Z,76.47
2018-06-12T12:09:04.148Z,75.67
2018-06-12T12:10:04.147Z,76.72
2018-06-12T12:11:04.145Z,77.59
2018-06-12T12:12:04.141Z,77.50
2018-06-12T12:13:04.151Z,79.24
2018-06-12T12:14:04.145Z,79.81
2018-06-12T12:15:04.146Z,79.00
2018-06-12T12:16:04.150Z,79.87
2018-06-12T12:17:04.188Z,80.39
2018-06-12T12:18:04.144Z,80.54
2018-06-12T12:19:04.140Z,79.87
2018-06-12T12:20:04.143Z,78.91
2018-06-12T12:21:04.145Z,82.57
2018-06-12T12:22:04.140Z,81.02
2018-06-12T12:23:04.146Z,80.16
2018-06-12T12:24:04.140Z,80.16
2018-06-12T12:25:04.139Z,79.77
2018-06-12T12:26:04.144Z,79.04
2018-06-12T12:27:04.143Z,78.27
2018-06-12T12:28:04.139Z,78.36
2018-06-12T12:29:04.152Z,78.27
2018-06-12T12:30:04.140Z,79.39
2018-06-12T12:31:04.147Z,78.23
2018-06-12T12:32:04.151Z,78.36
2018-06-12T12:33:04.149Z,77.88
2018-06-12T12:34:04.142Z,77.78
2018-06-12T12:35:04.137Z,78.56
2018-06-12T12:36:04.139Z,77.21
2018-06-12T12:37:04.150Z,77.30
2018-06-12T12:38:04.138Z,77.59
2018-06-12T12:39:04.137Z,77.88
2018-06-12T12:40:04.140Z,77.50
2018-06-12T12:41:04.143Z,77.59
2018-06-12T12:42:04.137Z,76.82
2018-06-12T12:43:04.145Z,75.57
2018-06-12T12:44:04.141Z,76.72
2018-06-12T12:45:04.147Z,77.11
2018-06-12T12:46:04.142Z,77.01
2018-06-12T12:47:04.150Z,77.11
2018-06-12T12:48:04.136Z,76.05
2018-06-12T12:49:04.137Z,76.92
2018-06-12T12:50:04.136Z,77.30
2018-06-12T12:51:04.135Z,77.21
2018-06-12T12:52:04.135Z,77.78